createdAt,value
2023-03-13T00:00:59.436Z,98694.16
2023-03-13T00:03:27.399Z,98694.72
2023-03-13T00:05:59.016Z,98687.91
2023-03-13T00:08:28.686Z,98691.59
2023-03-13T00:10:55.738Z,98684.06
2023-03-13T00:13:22.416Z,98675.28
2023-03-13T00:15:49.221Z,98682.50
2023-03-13T00:18:15.972Z,98662.78
2023-03-13T00:20:42.685Z,98662.91
2023-03-13T00:23:09.401Z,98655.81
2023-03-13T00:25:36.053Z,98644.56
2023-03-13T00:28:02.755Z,98647.53
2023-03-13T00:30:29.592Z,98636.66
2023-03-13T00:32:56.328Z,98646.84
2023-03-13T00:35:23.059Z,98640.16
2023-03-13T00:37:49.813Z,98631.53
2023-03-13T00:40:16.548Z,98624.84
2023-03-13T00:42:43.128Z,98618.31
2023-03-13T00:45:10.337Z,98615.59
2023-03-13T00:47:37.015Z,98606.66
2023-03-13T00:50:03.980Z,98606.09
2023-03-13T00:52:30.645Z,98605.09
2023-03-13T00:54:57.290Z,98595.47
2023-03-13T00:57:23.978Z,98591.19
2023-03-13T00:59:50.614Z,98598.72
2023-03-13T01:02:17.422Z,98592.47
2023-03-13T01:04:44.156Z,98598.44
2023-03-13T01:07:10.832Z,98599.28
2023-03-13T01:09:37.604Z,98597.28
2023-03-13T01:12:04.492Z,98593.72
2023-03-13T01:14:31.260Z,98585.91
2023-03-13T01:16:57.935Z,98586.06
2023-03-13T01:19:24.606Z,98580.78
2023-03-13T01:21:51.301Z,98571.69
2023-03-13T01:24:19.220Z,98567.72
2023-03-13T01:26:45.900Z,98564.34
2023-03-13T01:29:12.911Z,98566.91
2023-03-13T01:31:40.036Z,98558.06
2023-03-13T01:34:07.543Z,98556.91
2023-03-13T01:36:37.810Z,98552.94
2023-03-13T01:39:05.218Z,98545.81
2023-03-13T01:41:31.984Z,98545.69
2023-03-13T01:43:59.049Z,98538.56
2023-03-13T01:46:28.032Z,98531.34
2023-03-13T01:49:04.918Z,98526.50
2023-03-13T01:51:40.193Z,98525.59
2023-03-13T01:54:15.520Z,98510.84
2023-03-13T01:56:48.876Z,98502.59
2023-03-13T01:59:18.119Z,98492.34
2023-03-13T02:01:47.406Z,98495.59
2023-03-13T02:04:16.749Z,98496.34
2023-03-13T02:06:46.686Z,98482.38
2023-03-13T02:09:20.996Z,98481.19
2023-03-13T02:11:53.558Z,98479.84
2023-03-13T02:14:27.060Z,98466.75
2023-03-13T02:16:55.116Z,98462.19
2023-03-13T02:19:45.464Z,98439.16
2023-03-13T02:22:21.061Z,98434.00
2023-03-13T02:25:02.082Z,98443.06
2023-03-13T02:27:29.222Z,98435.06
2023-03-13T02:29:56.129Z,98428.00
2023-03-13T02:32:24.074Z,98415.16
2023-03-13T02:34:54.966Z,98421.03
2023-03-13T02:37:22.382Z,98413.81
2023-03-13T02:39:51.483Z,98409.66
2023-03-13T02:42:20.435Z,98395.75
2023-03-13T02:44:47.913Z,98403.72
2023-03-13T02:47:22.296Z,98400.72
2023-03-13T02:49:51.020Z,98405.03
2023-03-13T02:52:27.982Z,98397.19
2023-03-13T02:55:06.218Z,98396.13
2023-03-13T02:57:34.011Z,98390.53
2023-03-13T03:00:00.827Z,98393.63
2023-03-13T03:02:27.605Z,98386.41
2023-03-13T03:04:54.269Z,98384.53
2023-03-13T03:07:21.006Z,98381.13
2023-03-13T03:09:47.636Z,98377.53
2023-03-13T03:12:14.332Z,98373.63
2023-03-13T03:14:40.940Z,98359.94
2023-03-13T03:17:07.784Z,98355.75
2023-03-13T03:19:34.456Z,98349.75
2023-03-13T03:22:01.090Z,98349.31
2023-03-13T03:24:27.804Z,98343.81
2023-03-13T03:26:54.511Z,98339.06
2023-03-13T03:29:21.256Z,98334.09
2023-03-13T03:31:48.434Z,98328.06
2023-03-13T03:34:15.124Z,98318.31
2023-03-13T03:36:42.483Z,98305.72
2023-03-13T03:39:09.044Z,98288.53
2023-03-13T03:41:37.438Z,98293.34
2023-03-13T03:44:04.836Z,98269.25
2023-03-13T03:46:31.669Z,98266.16
2023-03-13T03:48:58.329Z,98265.22
2023-03-13T03:51:25.009Z,98242.84
2023-03-13T03:53:51.691Z,98239.63
2023-03-13T03:56:18.351Z,98238.63
2023-03-13T03:58:44.949Z,98230.22
2023-03-13T04:01:11.606Z,98217.72
2023-03-13T04:03:38.329Z,98208.06
2023-03-13T04:06:07.012Z,98187.94
2023-03-13T04:08:33.870Z,98188.72
2023-03-13T04:11:01.951Z,98167.66
2023-03-13T04:13:28.926Z,98166.09
2023-03-13T04:15:55.568Z,98163.59
2023-03-13T04:18:22.277Z,98131.19
2023-03-13T04:20:48.917Z,98122.66
2023-03-13T04:23:15.575Z,98121.66
2023-03-13T04:25:42.203Z,98101.59
2023-03-13T04:28:08.976Z,98097.59
2023-03-13T04:30:35.595Z,98099.41
2023-03-13T04:33:02.311Z,98076.44
2023-03-13T04:35:29.047Z,98064.13
2023-03-13T04:37:56.193Z,98062.47
2023-03-13T04:40:22.882Z,98063.13
2023-03-13T04:42:49.581Z,98059.19
2023-03-13T04:45:16.262Z,98048.59
2023-03-13T04:47:42.924Z,98043.34
2023-03-13T04:50:10.222Z,98034.97
2023-03-13T04:52:36.861Z,98028.56
2023-03-13T04:55:03.789Z,98024.13
2023-03-13T04:57:30.760Z,98016.72
2023-03-13T04:59:57.387Z,97992.41
2023-03-13T05:02:24.088Z,97991.97
2023-03-13T05:04:52.289Z,97989.06
2023-03-13T05:07:19.151Z,97963.25
2023-03-13T05:09:45.812Z,97959.72
2023-03-13T05:12:12.526Z,97950.78
2023-03-13T05:14:39.199Z,97939.47
2023-03-13T05:17:05.903Z,97931.22
2023-03-13T05:19:32.535Z,97923.94
2023-03-13T05:21:59.325Z,97917.38
2023-03-13T05:24:25.990Z,97907.56
2023-03-13T05:26:54.707Z,97896.47
2023-03-13T05:29:21.832Z,97899.13
2023-03-13T05:31:48.471Z,97890.03
2023-03-13T05:34:15.176Z,97881.91
2023-03-13T05:36:41.905Z,97887.63
2023-03-13T05:39:08.589Z,97863.50
2023-03-13T05:41:35.299Z,97866.41
2023-03-13T05:44:02.044Z,97913.50
2023-03-13T05:46:28.832Z,98041.47
2023-03-13T05:48:55.480Z,98044.50
2023-03-13T05:51:22.159Z,98040.31
2023-03-13T05:53:48.848Z,98035.28
2023-03-13T05:56:15.689Z,98037.97
2023-03-13T05:58:45.320Z,98049.63
2023-03-13T06:01:13.708Z,98045.66
2023-03-13T06:03:40.640Z,98035.13
2023-03-13T06:06:07.503Z,98030.09
2023-03-13T06:08:34.143Z,98022.03
2023-03-13T06:11:02.077Z,98014.75
2023-03-13T06:13:28.991Z,98009.69
2023-03-13T06:15:57.439Z,98014.25
2023-03-13T06:18:24.860Z,97993.81
2023-03-13T06:20:57.919Z,97985.72
2023-03-13T06:23:24.752Z,97990.09
2023-03-13T06:25:51.803Z,97975.09
2023-03-13T06:28:18.506Z,97993.00
2023-03-13T06:30:45.417Z,97983.91
2023-03-13T06:33:12.372Z,97957.72
2023-03-13T06:35:55.838Z,97957.91
2023-03-13T06:38:24.928Z,97942.00
2023-03-13T06:40:51.741Z,97943.38
2023-03-13T06:43:19.311Z,97935.47
2023-03-13T06:45:46.141Z,97920.25
2023-03-13T06:48:12.807Z,97914.66
2023-03-13T06:50:40.401Z,97901.31
2023-03-13T06:53:07.539Z,97888.16
2023-03-13T06:55:34.257Z,97880.19
2023-03-13T06:58:00.948Z,97893.56
2023-03-13T07:00:27.654Z,97878.34
2023-03-13T07:02:54.330Z,97852.00
2023-03-13T07:05:21.189Z,97855.69
2023-03-13T07:07:47.866Z,97831.03
2023-03-13T07:10:14.605Z,97820.53
2023-03-13T07:12:41.315Z,97842.50
2023-03-13T07:15:08.548Z,97837.78
2023-03-13T07:17:35.426Z,97836.41
2023-03-13T07:20:02.193Z,97816.44
2023-03-13T07:22:28.962Z,97812.38
2023-03-13T07:24:56.030Z,97792.44
2023-03-13T07:27:23.211Z,97802.78
2023-03-13T07:29:49.977Z,97794.81
2023-03-13T07:32:16.734Z,97784.97
2023-03-13T07:34:46.278Z,97783.94
2023-03-13T07:37:14.416Z,97775.44
2023-03-13T07:39:41.830Z,97783.41
2023-03-13T07:42:11.687Z,97772.22
2023-03-13T07:44:38.529Z,97763.56
2023-03-13T07:47:05.549Z,97755.44
2023-03-13T07:49:32.442Z,97764.84
2023-03-13T07:51:59.159Z,97748.72
2023-03-13T07:54:25.811Z,97754.84
2023-03-13T07:56:52.512Z,97749.38
2023-03-13T07:59:19.223Z,97746.16
2023-03-13T08:01:45.935Z,97738.69
2023-03-13T08:04:14.334Z,97724.25
2023-03-13T08:06:42.035Z,97747.38
2023-03-13T08:09:08.908Z,97781.28
2023-03-13T08:11:35.799Z,97764.84
2023-03-13T08:14:02.435Z,97755.28
2023-03-13T08:16:34.514Z,97738.91
2023-03-13T08:19:04.589Z,97733.47
2023-03-13T08:21:34.482Z,97737.72
2023-03-13T08:24:06.901Z,97745.19
2023-03-13T08:26:36.028Z,97721.75
2023-03-13T08:29:20.869Z,97712.25
2023-03-13T08:31:50.094Z,97714.00
2023-03-13T08:34:18.269Z,97713.28
2023-03-13T08:36:45.340Z,97712.22
2023-03-13T08:39:14.579Z,97709.66
2023-03-13T08:41:41.548Z,97700.03
2023-03-13T08:44:11.228Z,97698.44
2023-03-13T08:46:38.319Z,97692.50
2023-03-13T08:49:06.548Z,97686.13
2023-03-13T08:51:34.252Z,97680.53
2023-03-13T08:54:02.079Z,97679.06
2023-03-13T08:56:30.508Z,97661.94
2023-03-13T08:59:02.258Z,97671.56
2023-03-13T09:01:31.700Z,97660.34
2023-03-13T09:04:01.229Z,97658.47
2023-03-13T09:06:29.714Z,97655.50
2023-03-13T09:08:58.189Z,97655.97
2023-03-13T09:11:25.256Z,97663.44
2023-03-13T09:13:55.807Z,97643.25
2023-03-13T09:16:24.772Z,97637.06
2023-03-13T09:18:52.379Z,97634.25
2023-03-13T09:21:37.318Z,97622.56
2023-03-13T09:24:04.229Z,97624.31
2023-03-13T09:26:31.123Z,97598.31
2023-03-13T09:28:58.331Z,97598.84
2023-03-13T09:31:31.403Z,97577.78
2023-03-13T09:33:59.108Z,97595.56
2023-03-13T09:36:26.572Z,97586.72
2023-03-13T09:38:56.240Z,97571.81
2023-03-13T09:41:38.693Z,97567.03
2023-03-13T09:44:14.433Z,97568.06
2023-03-13T09:46:53.382Z,97573.53
2023-03-13T09:49:23.013Z,97565.94
2023-03-13T09:51:56.495Z,97571.75
2023-03-13T09:54:33.239Z,97565.28
2023-03-13T09:57:11.910Z,97559.94
2023-03-13T09:59:48.228Z,97545.72
2023-03-13T10:02:31.523Z,97556.00
2023-03-13T10:05:22.427Z,97551.91
2023-03-13T10:07:49.734Z,97560.66
2023-03-13T10:10:19.296Z,97559.63
2023-03-13T10:12:49.111Z,97574.69
2023-03-13T10:15:38.675Z,97562.53
2023-03-13T10:18:21.730Z,97546.28
2023-03-13T10:20:56.954Z,97554.19
2023-03-13T10:23:27.489Z,97571.72
2023-03-13T10:25:54.252Z,97569.47
2023-03-13T10:28:22.580Z,97586.84
2023-03-13T10:30:54.612Z,97581.50
2023-03-13T10:33:27.703Z,97557.03
2023-03-13T10:36:07.745Z,97516.06
2023-03-13T10:38:52.008Z,97514.56
2023-03-13T10:41:29.285Z,97462.72
2023-03-13T10:44:01.321Z,97468.16
2023-03-13T10:46:34.145Z,97436.78
2023-03-13T10:49:04.098Z,97430.56
2023-03-13T10:51:36.424Z,97424.34
2023-03-13T10:54:15.043Z,97421.63
2023-03-13T10:56:41.762Z,97409.69
2023-03-13T10:59:26.688Z,97396.91
2023-03-13T11:02:00.379Z,97403.38
2023-03-13T11:04:30.149Z,97403.81
2023-03-13T11:07:16.244Z,97435.03
2023-03-13T11:09:42.950Z,97442.75
2023-03-13T11:12:20.336Z,97449.69
2023-03-13T11:14:47.416Z,97454.91
2023-03-13T11:17:40.817Z,97446.81
2023-03-13T11:20:27.965Z,97432.56
2023-03-13T11:23:13.425Z,97438.69
2023-03-13T11:26:02.604Z,97454.22
2023-03-13T11:28:53.797Z,97449.59
2023-03-13T11:31:28.418Z,97450.22
2023-03-13T11:34:20.227Z,97474.75
2023-03-13T11:37:09.773Z,97502.84
2023-03-13T11:40:06.920Z,97388.50
2023-03-13T11:42:43.217Z,97343.44
2023-03-13T11:45:28.542Z,97376.59
2023-03-13T11:48:21.902Z,97443.09
2023-03-13T11:50:57.666Z,97500.13
2023-03-13T11:54:05.729Z,97673.53
2023-03-13T11:56:43.119Z,97699.13
2023-03-13T11:59:41.464Z,97762.22
2023-03-13T12:02:20.192Z,97813.59
2023-03-13T12:04:54.740Z,97862.66
2023-03-13T12:07:24.040Z,97918.22
2023-03-13T12:10:02.988Z,97965.78
2023-03-13T12:12:47.689Z,98061.84
2023-03-13T12:15:14.472Z,98127.34
2023-03-13T12:18:02.788Z,98167.19
2023-03-13T12:20:55.995Z,98193.09
2023-03-13T12:23:37.785Z,98349.50
2023-03-13T12:26:15.592Z,98373.81
2023-03-13T12:28:57.441Z,98404.59
2023-03-13T12:31:27.006Z,98448.75
2023-03-13T12:34:22.110Z,98491.56
2023-03-13T12:37:01.099Z,98515.56
2023-03-13T12:39:30.853Z,98589.38
2023-03-13T12:42:00.602Z,98627.94
2023-03-13T12:44:28.118Z,98653.28
2023-03-13T12:47:01.562Z,98649.41
2023-03-13T12:49:47.066Z,98673.41
2023-03-13T12:52:26.390Z,98708.16
2023-03-13T12:54:58.620Z,98742.81
2023-03-13T12:57:59.839Z,98733.28
2023-03-13T13:00:30.444Z,98747.75
2023-03-13T13:03:27.741Z,98734.75
2023-03-13T13:06:11.545Z,98830.78
2023-03-13T13:09:08.548Z,98798.91
2023-03-13T13:11:44.258Z,98833.19
2023-03-13T13:14:19.838Z,98830.94
2023-03-13T13:16:56.849Z,98847.03
2023-03-13T13:19:23.471Z,98838.78
2023-03-13T13:22:28.257Z,98849.56
2023-03-13T13:24:59.092Z,98862.31
2023-03-13T13:27:31.835Z,98841.56
2023-03-13T13:30:01.360Z,98867.94
2023-03-13T13:33:04.869Z,98862.75
2023-03-13T13:35:36.553Z,98843.19
2023-03-13T13:38:30.235Z,98836.19
2023-03-13T13:41:09.251Z,98832.81
2023-03-13T13:43:44.177Z,98838.25
2023-03-13T13:46:30.032Z,98823.34
2023-03-13T13:49:06.000Z,98842.81
2023-03-13T13:51:43.049Z,98850.94
2023-03-13T13:54:12.785Z,98831.41
2023-03-13T13:56:49.418Z,98826.94
2023-03-13T13:59:22.616Z,98836.19
2023-03-13T14:02:10.981Z,98812.38
2023-03-13T14:04:45.044Z,98825.19
2023-03-13T14:07:41.017Z,98814.00
2023-03-13T14:10:30.501Z,98809.56
2023-03-13T14:12:59.629Z,98821.44
2023-03-13T14:15:30.023Z,98812.66
2023-03-13T14:18:01.248Z,98809.16
2023-03-13T14:20:32.479Z,98803.97
2023-03-13T14:23:06.264Z,98809.78
2023-03-13T14:25:48.161Z,98792.19
2023-03-13T14:28:31.458Z,98798.94
2023-03-13T14:30:59.302Z,98815.81
2023-03-13T14:33:27.730Z,98796.41
2023-03-13T14:35:55.482Z,98793.09
2023-03-13T14:38:27.208Z,98796.13
2023-03-13T14:40:57.859Z,98800.97
2023-03-13T14:43:33.589Z,98805.06
2023-03-13T14:46:01.709Z,98787.25
2023-03-13T14:48:32.212Z,98796.63
2023-03-13T14:51:15.060Z,98777.09
2023-03-13T14:53:57.574Z,98802.41
2023-03-13T14:56:42.142Z,98778.28
2023-03-13T14:59:19.500Z,98792.78
2023-03-13T15:01:46.752Z,98806.38
2023-03-13T15:04:13.554Z,98797.69
2023-03-13T15:06:40.276Z,98803.94
2023-03-13T15:09:09.942Z,98803.81
2023-03-13T15:11:41.476Z,98803.88
2023-03-13T15:14:36.232Z,98808.25
2023-03-13T15:17:04.455Z,98792.06
2023-03-13T15:19:32.333Z,98807.47
2023-03-13T15:21:59.087Z,98798.41
2023-03-13T15:24:25.819Z,98796.53
2023-03-13T15:26:52.508Z,98788.66
2023-03-13T15:29:20.207Z,98780.47
2023-03-13T15:31:47.183Z,98789.88
2023-03-13T15:34:15.009Z,98794.91
2023-03-13T15:36:42.520Z,98798.81
2023-03-13T15:39:19.364Z,98767.56
2023-03-13T15:41:46.146Z,98769.56
2023-03-13T15:44:12.896Z,98755.25
2023-03-13T15:46:39.709Z,98756.50
2023-03-13T15:49:11.376Z,98769.84
2023-03-13T15:51:38.392Z,98788.09
2023-03-13T15:54:05.236Z,98764.75
2023-03-13T15:56:36.925Z,98756.88
2023-03-13T15:59:13.955Z,98746.31
2023-03-13T16:01:41.146Z,98724.16
2023-03-13T16:04:08.048Z,98740.66
2023-03-13T16:06:34.640Z,98705.28
2023-03-13T16:09:06.512Z,98728.19
2023-03-13T16:11:33.647Z,98723.84
2023-03-13T16:14:00.483Z,98722.50
2023-03-13T16:16:29.850Z,98745.84
2023-03-13T16:18:57.862Z,98731.84
2023-03-13T16:21:30.777Z,98728.81
2023-03-13T16:23:58.131Z,98737.41
2023-03-13T16:26:30.249Z,98725.59
2023-03-13T16:28:57.847Z,98735.00
2023-03-13T16:34:13.286Z,98743.50
2023-03-13T16:36:39.974Z,98706.63
2023-03-13T16:39:11.306Z,98703.25
2023-03-13T16:41:41.119Z,98679.38
2023-03-13T16:44:07.952Z,98688.59
2023-03-13T16:46:40.631Z,98699.53
2023-03-13T16:49:12.742Z,98682.69
2023-03-13T16:51:39.775Z,98683.91
2023-03-13T16:54:06.756Z,98679.84
2023-03-13T16:56:38.928Z,98691.34
2023-03-13T16:59:10.366Z,98707.19
2023-03-13T17:01:37.472Z,98705.31
2023-03-13T17:04:04.512Z,98688.09
2023-03-13T17:06:37.744Z,98696.47
2023-03-13T17:09:10.270Z,98684.84
2023-03-13T17:11:36.911Z,98677.03
2023-03-13T17:14:07.066Z,98708.94
2023-03-13T17:16:35.860Z,98708.22
2023-03-13T17:19:03.537Z,98687.94
2023-03-13T17:21:34.969Z,98718.59
2023-03-13T17:24:01.981Z,98725.44
2023-03-13T17:26:36.340Z,98708.88
2023-03-13T17:29:04.851Z,98699.31
2023-03-13T17:31:37.246Z,98721.16
2023-03-13T17:34:08.447Z,98715.72
2023-03-13T17:36:36.058Z,98720.44
2023-03-13T17:39:06.171Z,98718.03
2023-03-13T17:41:34.526Z,98715.66
2023-03-13T17:44:01.223Z,98691.94
2023-03-13T17:46:34.853Z,98718.91
2023-03-13T17:49:01.642Z,98708.53
2023-03-13T17:51:30.508Z,98731.22
2023-03-13T17:54:00.592Z,98738.38
2023-03-13T17:56:32.882Z,98769.88
2023-03-13T17:59:00.830Z,98754.94
2023-03-13T18:01:30.243Z,98779.84
2023-03-13T18:03:57.863Z,98779.69
2023-03-13T18:06:32.201Z,98769.16
2023-03-13T18:09:07.967Z,98789.44
2023-03-13T18:11:36.617Z,98783.97
2023-03-13T18:14:04.335Z,98808.16
2023-03-13T18:16:38.110Z,98797.75
2023-03-13T18:19:07.019Z,98810.56
2023-03-13T18:21:34.681Z,98811.72
2023-03-13T18:24:02.852Z,98825.22
2023-03-13T18:26:35.078Z,98820.44
2023-03-13T18:29:26.837Z,98832.34
2023-03-13T18:31:55.380Z,98809.03
2023-03-13T18:34:23.551Z,98800.19
2023-03-13T18:36:50.469Z,98800.53
2023-03-13T18:39:18.659Z,98796.78
2023-03-13T18:41:52.630Z,98801.88
2023-03-13T18:44:20.955Z,98808.53
2023-03-13T18:46:47.741Z,98803.06
2023-03-13T18:49:23.505Z,98803.59
2023-03-13T18:51:52.372Z,98803.44
2023-03-13T18:54:19.990Z,98824.19
2023-03-13T18:56:50.230Z,98813.63
2023-03-13T18:59:22.377Z,98811.25
2023-03-13T19:01:51.143Z,98808.88
2023-03-13T19:04:19.473Z,98827.25
2023-03-13T19:06:46.854Z,98818.72
2023-03-13T19:09:41.739Z,98800.34
2023-03-13T19:12:05.154Z,98814.31
2023-03-13T19:14:32.139Z,98811.09
2023-03-13T19:16:59.169Z,98819.94
2023-03-13T19:19:26.568Z,98825.53
2023-03-13T19:21:57.537Z,98818.06
2023-03-13T19:24:26.931Z,98818.59
2023-03-13T19:26:58.931Z,98821.81
2023-03-13T19:29:28.673Z,98818.06
2023-03-13T19:31:55.987Z,98824.19
2023-03-13T19:34:23.172Z,98835.59
2023-03-13T19:36:50.790Z,98832.00
2023-03-13T19:39:20.326Z,98830.66
2023-03-13T19:41:48.528Z,98855.31
2023-03-13T19:44:17.046Z,98843.75
2023-03-13T19:46:44.402Z,98857.38
2023-03-13T19:49:16.294Z,98874.19
2023-03-13T19:51:43.533Z,98877.41
2023-03-13T19:54:11.528Z,98879.28
2023-03-13T19:56:44.130Z,98880.97
2023-03-13T19:59:15.868Z,98867.72
2023-03-13T20:01:43.921Z,98861.09
2023-03-13T20:04:11.685Z,98866.00
2023-03-13T20:06:40.354Z,98866.16
2023-03-13T20:09:13.239Z,98861.59
2023-03-13T20:11:40.445Z,98857.66
2023-03-13T20:14:07.756Z,98864.09
2023-03-13T20:16:35.530Z,98861.56
2023-03-13T20:19:03.377Z,98856.44
2023-03-13T20:21:33.007Z,98873.13
2023-03-13T20:24:01.452Z,98860.22
2023-03-13T20:26:30.710Z,98855.78
2023-03-13T20:28:58.752Z,98842.31
2023-03-13T20:31:31.544Z,98848.97
2023-03-13T20:34:00.485Z,98863.72
2023-03-13T20:36:27.995Z,98865.34
2023-03-13T20:38:55.255Z,98847.00
2023-03-13T20:41:25.774Z,98864.78
2023-03-13T20:43:53.485Z,98856.63
2023-03-13T20:46:21.424Z,98838.28
2023-03-13T20:48:49.226Z,98842.50
2023-03-13T20:51:16.744Z,98846.06
2023-03-13T20:53:43.783Z,98841.56
2023-03-13T20:56:11.795Z,98848.16
2023-03-13T20:58:38.915Z,98842.91
2023-03-13T21:01:07.221Z,98826.97
2023-03-13T21:03:35.735Z,98819.50
2023-03-13T21:06:14.529Z,98813.53
2023-03-13T21:08:41.788Z,98816.03
2023-03-13T21:11:19.780Z,98831.97
2023-03-13T21:13:47.656Z,98830.41
2023-03-13T21:16:15.404Z,98834.47
2023-03-13T21:18:42.421Z,98827.53
2023-03-13T21:21:13.337Z,98833.59
2023-03-13T21:23:40.806Z,98834.31
2023-03-13T21:26:07.547Z,98832.38
2023-03-13T21:28:35.007Z,98831.81
2023-03-13T21:31:09.464Z,98824.38
2023-03-13T21:33:36.249Z,98826.38
2023-03-13T21:36:03.062Z,98800.56
2023-03-13T21:38:30.184Z,98792.69
2023-03-13T21:40:58.321Z,98791.69
2023-03-13T21:43:28.063Z,98807.25
2023-03-13T21:45:56.746Z,98810.97
2023-03-13T21:48:23.380Z,98815.84
2023-03-13T21:50:53.794Z,98802.81
2023-03-13T21:53:20.671Z,98803.66
2023-03-13T21:55:51.606Z,98792.97
2023-03-13T21:58:18.424Z,98786.84
2023-03-13T22:00:45.682Z,98805.75
2023-03-13T22:03:12.780Z,98798.94
2023-03-13T22:05:44.353Z,98797.50
2023-03-13T22:08:11.552Z,98791.75
2023-03-13T22:10:39.062Z,98801.66
2023-03-13T22:13:07.508Z,98806.13
2023-03-13T22:15:34.534Z,98812.75
2023-03-13T22:18:01.660Z,98799.72
2023-03-13T22:20:28.327Z,98809.03
2023-03-13T22:22:54.975Z,98815.47
2023-03-13T22:25:21.755Z,98818.72
2023-03-13T22:27:48.388Z,98816.38
2023-03-13T22:30:15.308Z,98811.41
2023-03-13T22:32:42.136Z,98819.38
2023-03-13T22:35:09.357Z,98825.16
2023-03-13T22:37:36.178Z,98815.09
2023-03-13T22:40:03.498Z,98833.97
2023-03-13T22:42:30.269Z,98824.88
2023-03-13T22:44:57.498Z,98809.25
2023-03-13T22:47:25.913Z,98818.53
2023-03-13T22:49:53.684Z,98813.94
2023-03-13T22:52:22.159Z,98798.66
2023-03-13T22:54:48.867Z,98800.31
2023-03-13T22:57:15.474Z,98794.72
2023-03-13T22:59:42.109Z,98797.72
2023-03-13T23:02:08.794Z,98792.66
2023-03-13T23:04:35.476Z,98802.28
2023-03-13T23:07:02.203Z,98797.22
2023-03-13T23:09:28.854Z,98785.47
2023-03-13T23:11:55.530Z,98786.75
2023-03-13T23:14:22.241Z,98778.72
2023-03-13T23:16:48.987Z,98774.19
2023-03-13T23:19:15.658Z,98773.38
2023-03-13T23:21:42.338Z,98751.16
2023-03-13T23:24:09.012Z,98757.78
2023-03-13T23:26:35.836Z,98765.16
2023-03-13T23:29:02.533Z,98768.56
2023-03-13T23:31:29.609Z,98769.53
2023-03-13T23:33:56.358Z,98752.13
2023-03-13T23:36:23.027Z,98752.53
2023-03-13T23:38:51.909Z,98747.81
2023-03-13T23:41:20.343Z,98748.59
2023-03-13T23:43:47.010Z,98755.22
2023-03-13T23:46:19.046Z,98755.44
2023-03-13T23:48:45.783Z,98764.69
2023-03-13T23:51:12.632Z,98759.03
2023-03-13T23:53:41.329Z,98769.75
2023-03-13T23:56:08.711Z,98773.22
2023-03-13T23:58:35.423Z,98780.09
